Time,TemperatureF,DewpointF,PressureIn,WindDirection,WindDirectionDegrees,WindSpeedMPH,WindSpeedGustMPH,Humidity,HourlyPrecipIn,Conditions,Clouds,dailyrainin,SoftwareType,DateUTC
2014-10-20 00:04:00,62.3,51.6,29.95,SW,225,0.0,0.0,68,0.00,,,0.00,WUHU216HW,2014-10-20 07:04:00,
2014-10-20 00:09:00,62.3,51.6,29.95,SW,225,0.0,0.0,68,0.00,,,0.00,WUHU216HW,2014-10-20 07:09:00,
2014-10-20 00:14:00,62.1,51.4,29.95,SW,225,0.0,0.0,68,0.00,,,0.00,WUHU216HW,2014-10-20 07:14:00,
2014-10-20 00:19:00,62.1,51.4,29.95,SW,225,0.0,0.0,68,0.00,,,0.00,WUHU216HW,2014-10-20 07:19:00,
2014-10-20 00:24:00,61.9,51.3,29.95,SW,225,0.0,0.0,68,0.00,,,0.00,WUHU216HW,2014-10-20 07:24:00,
2014-10-20 00:29:00,61.7,51.1,29.95,SW,225,0.0,0.0,68,0.00,,,0.00,WUHU216HW,2014-10-20 07:29:00,
2014-10-20 00:34:00,61.7,51.5,29.95,SW,225,0.0,0.0,69,0.00,,,0.00,WUHU216HW,2014-10-20 07:34:00,
2014-10-20 00:39:00,61.9,51.7,29.96,SW,225,0.0,0.0,69,0.00,,,0.00,WUHU216HW,2014-10-20 07:39:00,
2014-10-20 00:44:00,62.1,51.8,29.95,SW,225,0.0,0.0,69,0.00,,,0.00,WUHU216HW,2014-10-20 07:44:00,
2014-10-20 00:49:00,62.3,52.0,29.95,SW,225,0.2,0.4,69,0.00,,,0.00,WUHU216HW,2014-10-20 07:49:00,
2014-10-20 00:54:00,62.5,51.8,29.95,SW,225,0.0,0.4,68,0.00,,,0.00,WUHU216HW,2014-10-20 07:54:00,
2014-10-20 00:59:00,62.6,51.9,29.96,West,270,0.7,0.7,68,0.00,,,0.00,WUHU216HW,2014-10-20 07:59:00,
2014-10-20 01:04:00,62.8,52.1,29.96,SW,225,0.0,1.1,68,0.00,,,0.00,WUHU216HW,2014-10-20 08:04:00,
2014-10-20 01:09:00,62.8,52.1,29.96,SW,225,0.0,1.1,68,0.00,,,0.00,WUHU216HW,2014-10-20 08:09:00,
2014-10-20 01:14:00,62.8,52.1,29.96,SW,225,0.0,0.2,68,0.00,,,0.00,WUHU216HW,2014-10-20 08:14:00,
2014-10-20 01:19:00,62.8,52.1,29.96,SW,225,0.9,0.9,68,0.00,,,0.00,WUHU216HW,2014-10-20 08:19:00,
2014-10-20 01:24:00,62.8,52.1,29.96,SW,225,0.0,0.9,68,0.00,,,0.00,WUHU216HW,2014-10-20 08:24:00,
2014-10-20 01:29:00,62.8,52.1,29.96,SW,225,0.0,0.9,68,0.00,,,0.00,WUHU216HW,2014-10-20 08:29:00,
2014-10-20 01:34:00,62.6,51.9,29.96,SSW,203,0.0,0.7,68,0.00,,,0.00,WUHU216HW,2014-10-20 08:34:00,
2014-10-20 01:39:00,62.6,51.9,29.96,SW,225,0.0,0.7,68,0.00,,,0.00,WUHU216HW,2014-10-20 08:39:00,
2014-10-20 01:44:00,62.5,51.8,29.96,SW,225,0.0,0.4,68,0.00,,,0.00,WUHU216HW,2014-10-20 08:44:00,
2014-10-20 01:49:00,62.5,51.8,29.96,SW,225,0.0,0.0,68,0.00,,,0.00,WUHU216HW,2014-10-20 08:49:00,
2014-10-20 01:54:00,62.3,51.6,29.96,SW,225,0.0,0.0,68,0.00,,,0.00,WUHU216HW,2014-10-20 08:54:00,
2014-10-20 01:59:00,62.3,51.6,29.96,SW,225,0.0,0.0,68,0.00,,,0.00,WUHU216HW,2014-10-20 08:59:00,
2014-10-20 02:04:00,62.3,51.6,29.96,SW,225,0.0,0.2,68,0.00,,,0.00,WUHU216HW,2014-10-20 09:04:00,
2014-10-20 02:09:00,62.3,51.6,29.96,SW,225,0.0,0.2,68,0.00,,,0.00,WUHU216HW,2014-10-20 09:09:00,
2014-10-20 02:14:00,62.5,51.8,29.96,SW,225,0.0,0.0,68,0.00,,,0.00,WUHU216HW,2014-10-20 09:14:00,
2014-10-20 02:19:00,62.5,51.8,29.96,SW,225,0.0,0.4,68,0.00,,,0.00,WUHU216HW,2014-10-20 09:19:00,
2014-10-20 02:24:00,62.6,51.9,29.96,SW,225,0.2,1.1,68,0.00,,,0.00,WUHU216HW,2014-10-20 09:24:00,
2014-10-20 02:29:00,62.6,51.9,29.96,SW,225,0.0,1.1,68,0.00,,,0.00,WUHU216HW,2014-10-20 09:29:00,
2014-10-20 02:34:00,62.6,51.9,29.96,SW,225,0.0,1.1,68,0.00,,,0.00,WUHU216HW,2014-10-20 09:34:00,
2014-10-20 02:39:00,62.6,51.9,29.96,SW,225,0.0,1.1,68,0.00,,,0.00,WUHU216HW,2014-10-20 09:39:00,
2014-10-20 02:44:00,62.6,51.5,29.96,SW,225,0.0,0.2,67,0.00,,,0.00,WUHU216HW,2014-10-20 09:44:00,
2014-10-20 02:49:00,62.5,51.3,29.96,SW,225,0.0,0.2,67,0.00,,,0.00,WUHU216HW,2014-10-20 09:49:00,
2014-10-20 02:54:00,62.3,51.2,29.96,SW,225,0.0,0.0,67,0.00,,,0.00,WUHU216HW,2014-10-20 09:54:00,
2014-10-20 02:59:00,62.3,51.2,29.96,SW,225,0.0,0.0,67,0.00,,,0.00,WUHU216HW,2014-10-20 09:59:00,
2014-10-20 03:04:00,62.3,51.2,29.96,SW,225,0.0,0.0,67,0.00,,,0.00,WUHU216HW,2014-10-20 10:04:00,
2014-10-20 03:09:00,62.3,51.2,29.96,SW,225,0.0,0.0,67,0.00,,,0.00,WUHU216HW,2014-10-20 10:09:00,
2014-10-20 03:14:00,62.1,51.4,29.96,NW,315,0.2,0.4,68,0.00,,,0.00,WUHU216HW,2014-10-20 10:14:00,
2014-10-20 03:19:00,62.1,51.4,29.95,North,0,0.4,1.1,68,0.00,,,0.00,WUHU216HW,2014-10-20 10:19:00,
2014-10-20 03:24:00,62.3,51.6,29.95,SE,135,0.4,1.1,68,0.00,,,0.00,WUHU216HW,2014-10-20 10:24:00,
2014-10-20 03:29:00,62.3,51.6,29.95,NNW,338,0.4,0.7,68,0.00,,,0.00,WUHU216HW,2014-10-20 10:29:00,
2014-10-20 03:34:00,62.1,51.4,29.95,NNW,338,0.9,1.3,68,0.00,,,0.00,WUHU216HW,2014-10-20 10:34:00,
2014-10-20 03:39:00,61.9,51.3,29.94,NNW,338,0.0,1.3,68,0.00,,,0.00,WUHU216HW,2014-10-20 10:39:00,
2014-10-20 03:44:00,61.9,51.3,29.94,NNW,338,1.8,1.8,68,0.00,,,0.00,WUHU216HW,2014-10-20 10:44:00,
2014-10-20 03:49:00,61.7,51.1,29.94,North,0,1.1,2.0,68,0.00,,,0.00,WUHU216HW,2014-10-20 10:49:00,
2014-10-20 03:54:00,61.7,51.1,29.94,North,0,0.0,2.0,68,0.00,,,0.00,WUHU216HW,2014-10-20 10:54:00,
2014-10-20 03:59:00,61.6,50.9,29.94,North,0,0.4,1.6,68,0.00,,,0.00,WUHU216HW,2014-10-20 10:59:00,
2014-10-20 04:04:00,61.6,50.9,29.94,North,0,0.0,0.4,68,0.00,,,0.00,WUHU216HW,2014-10-20 11:04:00,
2014-10-20 04:09:00,61.4,50.8,29.94,North,0,0.0,0.2,68,0.00,,,0.00,WUHU216HW,2014-10-20 11:09:00,
2014-10-20 04:14:00,61.2,50.6,29.94,North,0,0.0,0.0,68,0.00,,,0.00,WUHU216HW,2014-10-20 11:14:00,
2014-10-20 04:19:00,61.0,50.0,29.94,North,0,0.0,0.0,67,0.00,,,0.00,WUHU216HW,2014-10-20 11:19:00,
2014-10-20 04:24:00,61.0,50.0,29.94,North,0,0.0,0.0,67,0.00,,,0.00,WUHU216HW,2014-10-20 11:24:00,
2014-10-20 04:29:00,60.8,49.9,29.94,North,0,0.0,0.0,67,0.00,,,0.00,WUHU216HW,2014-10-20 11:29:00,
2014-10-20 04:34:00,60.8,49.9,29.94,North,0,0.0,0.0,67,0.00,,,0.00,WUHU216HW,2014-10-20 11:34:00,
2014-10-20 04:39:00,60.5,50.0,29.94,North,0,0.0,0.0,68,0.00,,,0.00,WUHU216HW,2014-10-20 11:39:00,
2014-10-20 04:44:00,60.5,50.0,29.94,North,0,0.0,0.0,68,0.00,,,0.00,WUHU216HW,2014-10-20 11:44:00,
2014-10-20 04:49:00,60.3,49.8,29.94,North,0,0.0,0.0,68,0.00,,,0.00,WUHU216HW,2014-10-20 11:49:00,
2014-10-20 04:54:00,60.1,49.6,29.94,North,0,0.0,0.0,68,0.00,,,0.00,WUHU216HW,2014-10-20 11:54:00,
2014-10-20 04:59:00,60.1,49.6,29.95,North,0,0.0,0.0,68,0.00,,,0.00,WUHU216HW,2014-10-20 11:59:00,
2014-10-20 05:04:00,59.9,49.4,29.95,North,0,0.0,0.0,68,0.00,,,0.00,WUHU216HW,2014-10-20 12:04:00,
2014-10-20 05:09:00,59.9,49.4,29.95,North,0,0.0,0.0,68,0.00,,,0.00,WUHU216HW,2014-10-20 12:09:00,
2014-10-20 05:14:00,59.9,49.4,29.95,North,0,0.0,0.0,68,0.00,,,0.00,WUHU216HW,2014-10-20 12:14:00,
2014-10-20 05:19:00,59.9,49.4,29.95,North,0,0.0,0.0,68,0.00,,,0.00,WUHU216HW,2014-10-20 12:19:00,
2014-10-20 05:24:00,59.9,49.4,29.95,North,0,0.0,0.0,68,0.00,,,0.00,WUHU216HW,2014-10-20 12:24:00,
2014-10-20 05:29:00,59.9,49.4,29.95,North,0,0.0,0.0,68,0.00,,,0.00,WUHU216HW,2014-10-20 12:29:00,
2014-10-20 05:34:00,59.9,49.8,29.95,North,0,0.0,0.0,69,0.00,,,0.00,WUHU216HW,2014-10-20 12:34:00,
2014-10-20 05:39:00,59.8,49.6,29.95,North,0,0.0,0.0,69,0.00,,,0.00,WUHU216HW,2014-10-20 12:39:00,
2014-10-20 05:44:00,59.6,49.4,29.96,North,0,0.0,0.0,69,0.00,,,0.00,WUHU216HW,2014-10-20 12:44:00,
2014-10-20 05:49:00,59.4,49.2,29.96,North,0,0.7,0.7,69,0.00,,,0.00,WUHU216HW,2014-10-20 12:49:00,
2014-10-20 05:54:00,59.4,49.2,29.95,North,0,0.7,1.1,69,0.00,,,0.00,WUHU216HW,2014-10-20 12:54:00,
2014-10-20 05:59:00,59.2,49.1,29.95,North,0,0.0,1.1,69,0.00,,,0.00,WUHU216HW,2014-10-20 12:59:00,
2014-10-20 06:04:00,59.2,49.1,29.95,North,0,0.9,0.9,69,0.00,,,0.00,WUHU216HW,2014-10-20 13:04:00,
2014-10-20 06:09:00,59.0,48.9,29.95,North,0,0.0,0.9,69,0.00,,,0.00,WUHU216HW,2014-10-20 13:09:00,
2014-10-20 06:14:00,59.0,48.9,29.95,North,0,0.0,0.9,69,0.00,,,0.00,WUHU216HW,2014-10-20 13:14:00,
2014-10-20 06:19:00,59.0,48.9,29.95,North,0,0.0,0.0,69,0.00,,,0.00,WUHU216HW,2014-10-20 13:19:00,
2014-10-20 06:24:00,59.0,48.9,29.95,North,0,0.0,0.0,69,0.00,,,0.00,WUHU216HW,2014-10-20 13:24:00,
2014-10-20 06:29:00,58.9,48.7,29.96,NNW,338,0.0,0.0,69,0.00,,,0.00,WUHU216HW,2014-10-20 13:29:00,
2014-10-20 06:34:00,58.9,48.7,29.96,NNW,338,0.0,0.0,69,0.00,,,0.00,WUHU216HW,2014-10-20 13:34:00,
2014-10-20 06:39:00,58.7,48.5,29.96,NNW,338,0.2,0.4,69,0.00,,,0.00,WUHU216HW,2014-10-20 13:39:00,
2014-10-20 06:44:00,58.7,48.5,29.96,NNW,338,0.0,0.4,69,0.00,,,0.00,WUHU216HW,2014-10-20 13:44:00,
2014-10-20 06:49:00,58.7,48.5,29.95,NNW,338,1.1,1.1,69,0.00,,,0.00,WUHU216HW,2014-10-20 13:49:00,
2014-10-20 06:54:00,58.7,48.5,29.95,NNW,338,0.0,1.1,69,0.00,,,0.00,WUHU216HW,2014-10-20 13:54:00,
2014-10-20 06:59:00,58.7,48.5,29.95,SW,225,0.0,1.1,69,0.00,,,0.00,WUHU216HW,2014-10-20 13:59:00,
2014-10-20 07:04:00,58.7,48.5,29.95,West,270,0.0,0.7,69,0.00,,,0.00,WUHU216HW,2014-10-20 14:04:00,
2014-10-20 07:09:00,58.7,48.5,29.95,WSW,248,0.0,0.7,69,0.00,,,0.00,WUHU216HW,2014-10-20 14:09:00,
2014-10-20 07:14:00,58.5,48.8,29.95,NW,315,0.0,0.4,70,0.00,,,0.00,WUHU216HW,2014-10-20 14:14:00,
2014-10-20 07:19:00,58.5,48.8,29.95,NW,315,1.1,1.1,70,0.00,,,0.00,WUHU216HW,2014-10-20 14:19:00,
2014-10-20 07:24:00,58.5,48.8,29.95,NNW,338,0.0,1.3,70,0.00,,,0.00,WUHU216HW,2014-10-20 14:24:00,
2014-10-20 07:29:00,58.5,48.8,29.95,SW,225,0.2,1.3,70,0.00,,,0.00,WUHU216HW,2014-10-20 14:29:00,
2014-10-20 07:34:00,58.5,48.8,29.95,SW,225,0.2,0.2,70,0.00,,,0.00,WUHU216HW,2014-10-20 14:34:00,
2014-10-20 07:39:00,58.5,48.8,29.95,WSW,248,0.0,0.4,70,0.00,,,0.00,WUHU216HW,2014-10-20 14:39:00,
2014-10-20 07:44:00,58.7,49.0,29.95,WSW,248,0.0,0.4,70,0.00,,,0.00,WUHU216HW,2014-10-20 14:44:00,
2014-10-20 07:49:00,58.7,49.0,29.95,WNW,293,1.1,1.1,70,0.00,,,0.00,WUHU216HW,2014-10-20 14:49:00,
2014-10-20 07:54:00,59.0,49.3,29.96,NNW,338,0.0,1.6,70,0.00,,,0.00,WUHU216HW,2014-10-20 14:54:00,
2014-10-20 07:59:00,59.2,49.5,29.96,ENE,68,0.0,1.6,70,0.00,,,0.00,WUHU216HW,2014-10-20 14:59:00,
2014-10-20 08:04:00,59.4,49.7,29.96,SW,225,0.4,0.9,70,0.00,,,0.00,WUHU216HW,2014-10-20 15:04:00,
2014-10-20 08:09:00,59.6,49.9,29.96,SW,225,0.0,0.7,70,0.00,,,0.00,WUHU216HW,2014-10-20 15:09:00,
2014-10-20 08:14:00,59.8,50.0,29.96,West,270,0.0,0.7,70,0.00,,,0.00,WUHU216HW,2014-10-20 15:14:00,
2014-10-20 08:19:00,59.9,50.2,29.97,West,270,0.0,0.7,70,0.00,,,0.00,WUHU216HW,2014-10-20 15:19:00,
2014-10-20 08:24:00,60.1,50.4,29.97,West,270,0.0,0.2,70,0.00,,,0.00,WUHU216HW,2014-10-20 15:24:00,
2014-10-20 08:29:00,60.5,50.8,29.97,WSW,248,0.0,0.2,70,0.00,,,0.00,WUHU216HW,2014-10-20 15:29:00,
2014-10-20 08:34:00,60.8,50.7,29.97,WSW,248,0.0,0.2,69,0.00,,,0.00,WUHU216HW,2014-10-20 15:34:00,
2014-10-20 08:39:00,61.2,51.0,29.97,SW,225,0.0,0.2,69,0.00,,,0.00,WUHU216HW,2014-10-20 15:39:00,
2014-10-20 08:44:00,61.6,51.4,29.98,SW,225,0.0,0.0,69,0.00,,,0.00,WUHU216HW,2014-10-20 15:44:00,
2014-10-20 08:49:00,61.9,51.7,29.98,NW,315,0.0,0.2,69,0.00,,,0.00,WUHU216HW,2014-10-20 15:49:00,
2014-10-20 08:54:00,62.3,52.4,29.98,West,270,0.0,0.4,70,0.00,,,0.00,WUHU216HW,2014-10-20 15:54:00,
2014-10-20 08:59:00,62.6,52.7,29.98,North,0,1.3,1.3,70,0.00,,,0.00,WUHU216HW,2014-10-20 15:59:00,
2014-10-20 09:04:00,63.0,52.7,29.98,NNW,338,1.1,2.0,69,0.00,,,0.00,WUHU216HW,2014-10-20 16:04:00,
2014-10-20 09:09:00,63.4,53.0,29.98,NNW,338,0.4,2.0,69,0.00,,,0.00,WUHU216HW,2014-10-20 16:09:00,
2014-10-20 09:14:00,63.7,53.0,29.98,North,0,0.9,2.0,68,0.00,,,0.00,WUHU216HW,2014-10-20 16:14:00,
2014-10-20 09:19:00,64.3,53.5,29.98,NNW,338,0.4,2.0,68,0.00,,,0.00,WUHU216HW,2014-10-20 16:19:00,
2014-10-20 09:24:00,64.4,53.6,29.98,NNW,338,0.0,1.8,68,0.00,,,0.00,WUHU216HW,2014-10-20 16:24:00,
2014-10-20 09:29:00,64.6,53.8,29.99,NNW,338,0.0,0.4,68,0.00,,,0.00,WUHU216HW,2014-10-20 16:29:00,
2014-10-20 09:34:00,64.6,53.4,29.99,NNW,338,0.0,0.0,67,0.00,,,0.00,WUHU216HW,2014-10-20 16:34:00,
2014-10-20 09:39:00,64.8,53.6,29.99,NNW,338,0.0,0.0,67,0.00,,,0.00,WUHU216HW,2014-10-20 16:39:00,
2014-10-20 09:44:00,65.0,53.7,29.99,NNW,338,0.0,0.0,67,0.00,,,0.00,WUHU216HW,2014-10-20 16:44:00,
2014-10-20 09:49:00,65.2,53.9,29.99,NNW,338,0.0,0.0,67,0.00,,,0.00,WUHU216HW,2014-10-20 16:49:00,
2014-10-20 09:54:00,65.5,53.8,30.00,NNW,338,0.4,0.4,66,0.00,,,0.00,WUHU216HW,2014-10-20 16:54:00,
2014-10-20 10:00:00,65.5,53.8,30.00,NNW,338,0.0,0.4,66,0.00,,,0.00,WUHU216HW,2014-10-20 17:00:00,
2014-10-20 10:05:00,65.7,54.0,30.00,NW,315,0.4,1.1,66,0.00,,,0.00,WUHU216HW,2014-10-20 17:05:00,
2014-10-20 10:10:00,65.9,54.2,30.00,West,270,0.4,1.6,66,0.00,,,0.00,WUHU216HW,2014-10-20 17:10:00,
2014-10-20 10:15:00,65.9,54.2,30.01,West,270,0.9,1.6,66,0.00,,,0.00,WUHU216HW,2014-10-20 17:15:00,
2014-10-20 10:20:00,65.5,53.8,30.01,West,270,0.0,1.8,66,0.00,,,0.00,WUHU216HW,2014-10-20 17:20:00,
2014-10-20 10:25:00,65.0,53.7,30.01,WNW,293,0.7,1.8,67,0.00,,,0.00,WUHU216HW,2014-10-20 17:25:00,
2014-10-20 10:30:00,64.6,53.8,30.01,West,270,0.2,1.8,68,0.00,,,0.00,WUHU216HW,2014-10-20 17:30:00,
2014-10-20 10:35:00,64.4,53.6,30.01,WNW,293,1.8,1.8,68,0.00,,,0.00,WUHU216HW,2014-10-20 17:35:00,
2014-10-20 10:40:00,64.1,53.7,30.01,West,270,0.9,1.8,69,0.00,,,0.00,WUHU216HW,2014-10-20 17:40:00,
2014-10-20 10:45:00,63.9,53.6,30.02,West,270,1.1,1.8,69,0.00,,,0.00,WUHU216HW,2014-10-20 17:45:00,
2014-10-20 10:50:00,63.7,53.4,30.01,West,270,0.0,1.1,69,0.00,,,0.00,WUHU216HW,2014-10-20 17:50:00,
2014-10-20 10:55:00,63.7,53.4,30.01,WSW,248,0.7,1.3,69,0.00,,,0.00,WUHU216HW,2014-10-20 17:55:00,
2014-10-20 11:00:00,63.7,53.4,30.01,WSW,248,0.4,1.3,69,0.00,,,0.00,WUHU216HW,2014-10-20 18:00:00,
2014-10-20 11:05:00,63.7,53.4,30.02,NW,315,0.9,2.0,69,0.00,,,0.00,WUHU216HW,2014-10-20 18:05:00,
2014-10-20 11:10:00,63.4,53.0,30.02,West,270,2.0,4.0,69,0.00,,,0.00,WUHU216HW,2014-10-20 18:10:00,
2014-10-20 11:15:00,63.0,52.7,30.02,West,270,1.6,4.0,69,0.00,,,0.00,WUHU216HW,2014-10-20 18:15:00,
2014-10-20 11:20:00,62.8,52.5,30.02,West,270,1.1,2.7,69,0.00,,,0.00,WUHU216HW,2014-10-20 18:20:00,
2014-10-20 11:25:00,63.0,52.7,30.02,West,270,0.9,1.6,69,0.00,,,0.00,WUHU216HW,2014-10-20 18:25:00,
2014-10-20 11:30:00,63.2,52.8,30.02,West,270,0.7,1.1,69,0.00,,,0.00,WUHU216HW,2014-10-20 18:30:00,
2014-10-20 11:35:00,63.5,53.2,30.02,West,270,0.4,1.3,69,0.00,,,0.00,WUHU216HW,2014-10-20 18:35:00,
2014-10-20 11:40:00,63.7,53.0,30.02,West,270,0.7,1.3,68,0.00,,,0.00,WUHU216HW,2014-10-20 18:40:00,
2014-10-20 11:45:00,64.3,53.5,30.02,West,270,1.1,1.6,68,0.00,,,0.00,WUHU216HW,2014-10-20 18:45:00,
2014-10-20 11:50:00,64.6,53.4,30.02,West,270,0.9,1.6,67,0.00,,,0.00,WUHU216HW,2014-10-20 18:50:00,
2014-10-20 11:55:00,65.0,53.3,30.02,WSW,248,1.6,2.2,66,0.00,,,0.00,WUHU216HW,2014-10-20 18:55:00,
2014-10-20 12:00:00,65.2,53.1,30.02,West,270,0.7,2.2,65,0.00,,,0.00,WUHU216HW,2014-10-20 19:00:00,
2014-10-20 12:05:00,65.5,53.4,30.02,West,270,1.8,2.2,65,0.00,,,0.00,WUHU216HW,2014-10-20 19:05:00,
2014-10-20 12:10:00,65.7,53.6,30.02,SSW,203,1.6,3.4,65,0.00,,,0.00,WUHU216HW,2014-10-20 19:10:00,
2014-10-20 12:15:00,65.9,53.4,30.02,West,270,1.8,3.4,64,0.00,,,0.00,WUHU216HW,2014-10-20 19:15:00,
2014-10-20 12:20:00,65.9,53.4,30.02,WNW,293,0.7,2.5,64,0.00,,,0.00,WUHU216HW,2014-10-20 19:20:00,
2014-10-20 12:25:00,65.9,53.4,30.02,West,270,1.1,2.5,64,0.00,,,0.00,WUHU216HW,2014-10-20 19:25:00,
2014-10-20 12:30:00,66.1,53.5,30.02,West,270,0.4,2.5,64,0.00,,,0.00,WUHU216HW,2014-10-20 19:30:00,
2014-10-20 12:35:00,66.1,53.1,30.03,West,270,1.1,2.0,63,0.00,,,0.00,WUHU216HW,2014-10-20 19:35:00,
2014-10-20 12:40:00,66.2,53.3,30.03,WNW,293,2.0,2.5,63,0.00,,,0.00,WUHU216HW,2014-10-20 19:40:00,
2014-10-20 12:45:00,66.1,53.1,30.03,West,270,1.3,2.5,63,0.00,,,0.00,WUHU216HW,2014-10-20 19:45:00,
2014-10-20 12:50:00,66.1,53.1,30.03,West,270,0.9,2.0,63,0.00,,,0.00,WUHU216HW,2014-10-20 19:50:00,
2014-10-20 12:55:00,66.1,53.1,30.03,West,270,1.1,1.8,63,0.00,,,0.00,WUHU216HW,2014-10-20 19:55:00,
2014-10-20 13:00:00,65.9,52.9,30.03,West,270,0.4,2.0,63,0.00,,,0.00,WUHU216HW,2014-10-20 20:00:00,
2014-10-20 13:05:00,65.9,52.9,30.03,West,270,1.3,2.5,63,0.00,,,0.00,WUHU216HW,2014-10-20 20:05:00,
2014-10-20 13:10:00,65.9,52.9,30.03,West,270,0.0,2.5,63,0.00,,,0.00,WUHU216HW,2014-10-20 20:10:00,
2014-10-20 13:15:00,65.9,52.9,30.03,SW,225,0.2,2.2,63,0.00,,,0.00,WUHU216HW,2014-10-20 20:15:00,
2014-10-20 13:20:00,65.9,53.4,30.02,SW,225,0.0,0.7,64,0.00,,,0.00,WUHU216HW,2014-10-20 20:20:00,
2014-10-20 13:25:00,65.7,53.2,30.02,SW,225,0.0,0.4,64,0.00,,,0.00,WUHU216HW,2014-10-20 20:25:00,
2014-10-20 13:30:00,65.9,53.4,30.01,SW,225,0.0,0.9,64,0.00,,,0.00,WUHU216HW,2014-10-20 20:30:00,
2014-10-20 13:35:00,66.2,53.3,30.01,SW,225,0.0,0.9,63,0.00,,,0.00,WUHU216HW,2014-10-20 20:35:00,
2014-10-20 13:40:00,66.6,53.7,30.01,South,180,0.0,1.8,63,0.00,,,0.00,WUHU216HW,2014-10-20 20:40:00,
2014-10-20 13:45:00,66.8,53.7,30.01,SW,225,0.0,1.8,63,0.00,,,0.00,WUHU216HW,2014-10-20 20:45:00,
2014-10-20 13:50:00,66.8,53.7,30.01,SW,225,0.0,1.3,63,0.00,,,0.00,WUHU216HW,2014-10-20 20:50:00,
2014-10-20 13:55:00,66.8,53.7,30.01,East,90,0.0,0.9,63,0.00,,,0.00,WUHU216HW,2014-10-20 20:55:00,
2014-10-20 14:00:00,67.0,53.9,30.01,WNW,293,0.9,1.1,63,0.00,,,0.00,WUHU216HW,2014-10-20 21:00:00,
2014-10-20 14:05:00,67.1,53.6,30.01,NNW,338,0.0,1.1,62,0.00,,,0.00,WUHU216HW,2014-10-20 21:05:00,
2014-10-20 14:10:00,67.5,54.0,30.01,West,270,0.4,1.1,62,0.00,,,0.00,WUHU216HW,2014-10-20 21:10:00,
2014-10-20 14:15:00,67.7,54.2,30.01,West,270,1.1,1.1,62,0.00,,,0.00,WUHU216HW,2014-10-20 21:15:00,
2014-10-20 14:20:00,68.0,54.1,30.01,West,270,1.1,1.6,61,0.00,,,0.00,WUHU216HW,2014-10-20 21:20:00,
2014-10-20 14:25:00,68.4,54.5,30.01,WNW,293,1.1,1.6,61,0.00,,,0.00,WUHU216HW,2014-10-20 21:25:00,
2014-10-20 14:30:00,68.6,54.6,30.00,WNW,293,0.4,1.1,61,0.00,,,0.00,WUHU216HW,2014-10-20 21:30:00,
2014-10-20 14:35:00,68.8,54.8,30.01,West,270,0.4,2.0,61,0.00,,,0.00,WUHU216HW,2014-10-20 21:35:00,
2014-10-20 14:40:00,68.9,55.0,30.01,West,270,0.7,2.0,61,0.00,,,0.00,WUHU216HW,2014-10-20 21:40:00,
2014-10-20 14:45:00,69.1,55.2,30.01,West,270,1.1,1.8,61,0.00,,,0.00,WUHU216HW,2014-10-20 21:45:00,
2014-10-20 14:50:00,69.1,55.2,30.01,WNW,293,0.0,1.8,61,0.00,,,0.00,WUHU216HW,2014-10-20 21:50:00,
2014-10-20 14:55:00,69.1,55.2,30.00,WNW,293,0.4,1.8,61,0.00,,,0.00,WUHU216HW,2014-10-20 21:55:00,
2014-10-20 15:00:00,69.1,54.7,30.00,NW,315,0.4,2.2,60,0.00,,,0.00,WUHU216HW,2014-10-20 22:00:00,
2014-10-20 15:05:00,69.1,54.7,30.01,WNW,293,0.7,2.2,60,0.00,,,0.00,WUHU216HW,2014-10-20 22:05:00,
2014-10-20 15:10:00,69.1,54.7,30.01,West,270,0.4,1.8,60,0.00,,,0.00,WUHU216HW,2014-10-20 22:10:00,
2014-10-20 15:15:00,69.1,54.7,30.01,West,270,1.6,2.0,60,0.00,,,0.00,WUHU216HW,2014-10-20 22:15:00,
2014-10-20 15:20:00,69.1,54.2,30.01,West,270,0.7,2.5,59,0.00,,,0.00,WUHU216HW,2014-10-20 22:20:00,
2014-10-20 15:25:00,69.3,54.9,30.01,WNW,293,1.1,2.5,60,0.00,,,0.00,WUHU216HW,2014-10-20 22:25:00,
2014-10-20 15:30:00,69.1,54.2,30.01,West,270,0.9,1.8,59,0.00,,,0.00,WUHU216HW,2014-10-20 22:30:00,
2014-10-20 15:35:00,69.1,54.2,30.01,WNW,293,0.7,2.2,59,0.00,,,0.00,WUHU216HW,2014-10-20 22:35:00,
2014-10-20 15:40:00,69.1,54.7,30.01,WNW,293,1.8,2.2,60,0.00,,,0.00,WUHU216HW,2014-10-20 22:40:00,
2014-10-20 15:45:00,69.1,54.7,30.01,West,270,0.4,2.0,60,0.00,,,0.00,WUHU216HW,2014-10-20 22:45:00,
2014-10-20 15:50:00,69.1,54.7,30.01,WNW,293,1.8,2.0,60,0.00,,,0.00,WUHU216HW,2014-10-20 22:50:00,
2014-10-20 15:55:00,69.1,54.7,30.01,West,270,0.0,2.0,60,0.00,,,0.00,WUHU216HW,2014-10-20 22:55:00,
2014-10-20 16:00:00,69.1,54.7,30.01,West,270,0.4,2.0,60,0.00,,,0.00,WUHU216HW,2014-10-20 23:00:00,
2014-10-20 16:05:00,69.7,55.3,30.01,West,270,1.8,2.2,60,0.00,,,0.00,WUHU216HW,2014-10-20 23:05:00,
2014-10-20 16:10:00,70.2,54.7,30.01,WNW,293,1.1,3.1,58,0.00,,,0.00,WUHU216HW,2014-10-20 23:10:00,
2014-10-20 16:15:00,70.2,54.3,30.01,NW,315,1.1,3.1,57,0.00,,,0.00,WUHU216HW,2014-10-20 23:15:00,
2014-10-20 16:20:00,70.4,54.5,30.02,West,270,2.2,2.5,57,0.00,,,0.00,WUHU216HW,2014-10-20 23:20:00,
2014-10-20 16:25:00,70.2,53.7,30.02,West,270,0.4,2.5,56,0.00,,,0.00,WUHU216HW,2014-10-20 23:25:00,
2014-10-20 16:30:00,69.8,53.9,30.02,WNW,293,1.6,2.5,57,0.00,,,0.00,WUHU216HW,2014-10-20 23:30:00,
2014-10-20 16:35:00,69.7,54.3,30.02,WSW,248,1.8,2.0,58,0.00,,,0.00,WUHU216HW,2014-10-20 23:35:00,
2014-10-20 16:40:00,69.5,54.1,30.02,SSE,158,1.1,2.0,58,0.00,,,0.00,WUHU216HW,2014-10-20 23:40:00,
2014-10-20 16:45:00,69.3,53.9,30.01,West,270,1.1,2.5,58,0.00,,,0.00,WUHU216HW,2014-10-20 23:45:00,
2014-10-20 16:50:00,69.1,53.7,30.01,West,270,0.4,2.5,58,0.00,,,0.00,WUHU216HW,2014-10-20 23:50:00,
2014-10-20 16:55:00,68.8,53.9,30.01,West,270,1.1,2.0,59,0.00,,,0.00,WUHU216HW,2014-10-20 23:55:00,
2014-10-20 17:00:00,68.4,53.6,30.01,West,270,0.4,2.0,59,0.00,,,0.00,WUHU216HW,2014-10-21 00:00:00,
2014-10-20 17:05:00,68.4,53.6,30.01,WNW,293,0.2,2.0,59,0.00,,,0.00,WUHU216HW,2014-10-21 00:05:00,
2014-10-20 17:10:00,68.0,53.2,30.01,WNW,293,1.8,2.0,59,0.00,,,0.00,WUHU216HW,2014-10-21 00:10:00,
2014-10-20 17:15:00,68.0,53.2,30.01,West,270,1.1,2.5,59,0.00,,,0.00,WUHU216HW,2014-10-21 00:15:00,
2014-10-20 17:20:00,67.9,53.5,30.01,West,270,0.0,2.5,60,0.00,,,0.00,WUHU216HW,2014-10-21 00:20:00,
2014-10-20 17:25:00,67.7,53.3,30.01,WNW,293,0.9,1.8,60,0.00,,,0.00,WUHU216HW,2014-10-21 00:25:00,
2014-10-20 17:30:00,67.5,53.2,30.01,WNW,293,0.9,1.1,60,0.00,,,0.00,WUHU216HW,2014-10-21 00:30:00,
2014-10-20 17:35:00,67.3,53.0,30.01,West,270,0.9,1.8,60,0.00,,,0.00,WUHU216HW,2014-10-21 00:35:00,
2014-10-20 17:40:00,67.3,53.0,30.02,West,270,0.4,2.0,60,0.00,,,0.00,WUHU216HW,2014-10-21 00:40:00,
2014-10-20 17:45:00,67.1,53.3,30.02,WSW,248,0.4,2.0,61,0.00,,,0.00,WUHU216HW,2014-10-21 00:45:00,
2014-10-20 17:50:00,67.1,53.3,30.02,SW,225,0.9,1.8,61,0.00,,,0.00,WUHU216HW,2014-10-21 00:50:00,
2014-10-20 17:55:00,67.1,53.3,30.02,WSW,248,0.0,1.8,61,0.00,,,0.00,WUHU216HW,2014-10-21 00:55:00,
2014-10-20 18:00:00,67.1,53.3,30.02,SW,225,0.2,1.1,61,0.00,,,0.00,WUHU216HW,2014-10-21 01:00:00,
2014-10-20 18:05:00,67.0,53.1,30.02,SW,225,0.0,1.1,61,0.00,,,0.00,WUHU216HW,2014-10-21 01:05:00,
2014-10-20 18:10:00,67.0,53.1,30.03,WNW,293,0.0,1.1,61,0.00,,,0.00,WUHU216HW,2014-10-21 01:10:00,
2014-10-20 18:15:00,66.6,53.2,30.02,SW,225,0.2,1.1,62,0.00,,,0.00,WUHU216HW,2014-10-21 01:15:00,
2014-10-20 18:20:00,66.6,53.2,30.03,SW,225,0.2,0.9,62,0.00,,,0.00,WUHU216HW,2014-10-21 01:20:00,
2014-10-20 18:25:00,66.4,53.0,30.03,WSW,248,0.0,0.9,62,0.00,,,0.00,WUHU216HW,2014-10-21 01:25:00,
2014-10-20 18:30:00,66.2,52.8,30.03,West,270,0.2,0.4,62,0.00,,,0.00,WUHU216HW,2014-10-21 01:30:00,
2014-10-20 18:35:00,66.1,52.7,30.03,West,270,0.0,0.4,62,0.00,,,0.00,WUHU216HW,2014-10-21 01:35:00,
2014-10-20 18:40:00,66.1,52.7,30.04,West,270,0.2,0.7,62,0.00,,,0.00,WUHU216HW,2014-10-21 01:40:00,
2014-10-20 18:45:00,65.9,52.5,30.04,West,270,0.0,0.7,62,0.00,,,0.00,WUHU216HW,2014-10-21 01:45:00,
2014-10-20 18:50:00,65.9,52.9,30.04,SW,225,0.2,0.7,63,0.00,,,0.00,WUHU216HW,2014-10-21 01:50:00,
2014-10-20 18:55:00,65.7,52.8,30.04,WSW,248,0.0,0.4,63,0.00,,,0.00,WUHU216HW,2014-10-21 01:55:00,
2014-10-20 19:00:00,65.5,52.6,30.04,SW,225,0.0,0.4,63,0.00,,,0.00,WUHU216HW,2014-10-21 02:00:00,
2014-10-20 19:05:00,65.3,52.4,30.04,SW,225,0.0,0.4,63,0.00,,,0.00,WUHU216HW,2014-10-21 02:05:00,
2014-10-20 19:10:00,65.2,52.2,30.04,SW,225,0.0,0.4,63,0.00,,,0.00,WUHU216HW,2014-10-21 02:10:00,
2014-10-20 19:15:00,65.0,52.0,30.04,SW,225,0.0,0.0,63,0.00,,,0.00,WUHU216HW,2014-10-21 02:15:00,
2014-10-20 19:20:00,64.8,51.8,30.04,SSW,203,0.4,0.7,63,0.00,,,0.00,WUHU216HW,2014-10-21 02:20:00,
2014-10-20 19:25:00,64.8,51.8,30.05,WSW,248,0.7,0.9,63,0.00,,,0.00,WUHU216HW,2014-10-21 02:25:00,
2014-10-20 19:30:00,64.6,52.1,30.05,WSW,248,0.2,0.9,64,0.00,,,0.00,WUHU216HW,2014-10-21 02:30:00,
2014-10-20 19:35:00,64.4,51.9,30.05,WSW,248,0.7,1.1,64,0.00,,,0.00,WUHU216HW,2014-10-21 02:35:00,
2014-10-20 19:40:00,64.4,51.9,30.05,WSW,248,0.0,1.1,64,0.00,,,0.00,WUHU216HW,2014-10-21 02:40:00,
2014-10-20 19:45:00,64.3,51.8,30.05,WNW,293,0.0,1.1,64,0.00,,,0.00,WUHU216HW,2014-10-21 02:45:00,
2014-10-20 19:50:00,64.3,51.8,30.05,WNW,293,0.2,1.1,64,0.00,,,0.00,WUHU216HW,2014-10-21 02:50:00,
2014-10-20 19:55:00,64.1,51.6,30.05,WNW,293,0.0,1.1,64,0.00,,,0.00,WUHU216HW,2014-10-21 02:55:00,
2014-10-20 20:00:00,64.1,51.6,30.05,WNW,293,0.0,0.9,64,0.00,,,0.00,WUHU216HW,2014-10-21 03:00:00,
2014-10-20 20:05:00,63.9,51.5,30.05,WNW,293,0.2,0.9,64,0.00,,,0.00,WUHU216HW,2014-10-21 03:05:00,
2014-10-20 20:10:00,63.7,51.7,30.06,WNW,293,0.0,0.2,65,0.00,,,0.00,WUHU216HW,2014-10-21 03:10:00,
2014-10-20 20:15:00,63.7,51.7,30.05,WNW,293,0.0,0.2,65,0.00,,,0.00,WUHU216HW,2014-10-21 03:15:00,
2014-10-20 20:20:00,63.7,51.7,30.05,WNW,293,0.0,0.0,65,0.00,,,0.00,WUHU216HW,2014-10-21 03:20:00,
2014-10-20 20:25:00,63.5,51.6,30.06,WNW,293,0.0,0.0,65,0.00,,,0.00,WUHU216HW,2014-10-21 03:25:00,
2014-10-20 20:30:00,63.4,51.4,30.06,WNW,293,0.0,0.0,65,0.00,,,0.00,WUHU216HW,2014-10-21 03:30:00,
2014-10-20 20:35:00,63.2,51.2,30.06,WNW,293,0.0,0.0,65,0.00,,,0.00,WUHU216HW,2014-10-21 03:35:00,
2014-10-20 20:40:00,63.0,51.0,30.06,WNW,293,0.0,0.0,65,0.00,,,0.00,WUHU216HW,2014-10-21 03:40:00,
2014-10-20 20:45:00,62.6,50.7,30.06,WNW,293,0.0,0.0,65,0.00,,,0.00,WUHU216HW,2014-10-21 03:45:00,
2014-10-20 20:50:00,62.5,50.5,30.06,WNW,293,0.0,0.0,65,0.00,,,0.00,WUHU216HW,2014-10-21 03:50:00,
2014-10-20 20:55:00,62.3,50.3,30.06,WNW,293,0.0,0.0,65,0.00,,,0.00,WUHU216HW,2014-10-21 03:55:00,
2014-10-20 21:00:00,62.1,50.2,30.06,WNW,293,0.0,0.0,65,0.00,,,0.00,WUHU216HW,2014-10-21 04:00:00,
2014-10-20 21:05:00,62.1,50.2,30.06,WNW,293,0.0,0.0,65,0.00,,,0.00,WUHU216HW,2014-10-21 04:05:00,
2014-10-20 21:10:00,62.1,50.2,30.06,WNW,293,0.0,0.0,65,0.00,,,0.00,WUHU216HW,2014-10-21 04:10:00,
2014-10-20 21:15:00,62.1,50.2,30.06,WNW,293,0.0,0.0,65,0.00,,,0.00,WUHU216HW,2014-10-21 04:15:00,